Portada
METAR-TAF:

METAR-TAF

Aeropuertos :

Aeropuerto Internacional de Dakar-Yoff/Léopold Sédar Senghor

Dakar, Senegal

latitud: 14-44N, longitud: 017-30W, altitud: 27 m

Observación

El informe se hizo hace 1 hora y 15 minutos, a las 22:00 UTC
Viento 6 kt del sur-suroeste
Temperatura 28°C
Humedad 79%
Presión 1013 hPa
Visibilidad: 8000 m
Escasas nubes a una altura de 1300 ft

METAR: GOOY 222200Z 20006KT 8000 FEW013 28/24 Q1013

Hora: 23:15 (23:15 UTC)

Pronóstico

El informe se hizo hace 11 horas y 45 minutos, a las 11:30 UTC
Pronóstico válido del 22 a las 12 UTC al 23 a las 18 UTC
Viento 10 kt del oeste-suroeste
Visibilidad 10 km o más
Nubes dispersas a una altura de 1400 ft
Probabilidad 40% :
Temporalmente
del 23 a las 03 UTC al 23 a las 08 UTC
Visibilidad: 4000 m
Cielo nuboso a una altura de 1200 ft
Escasas nubes a una altura de 2500 ft, Cumulonimbus.
tormenta, lluvia

TAF: GOOY 221130Z 2212/2318 25010KT 9999 SCT014 PROB40 TEMPO 2303/2308 4000 TSRA BKN012 FEW025CB

Observaciones y pronósticos meteorológicos de más de 4000 aeropuertos (mensajes METAR y TAF).

Los puntos amarillos y rojos representan las estaciones disponibles.

Ponga el ratón en el punto deseado para ver el nombre de la estación.

Haga clic para ver las observaciones y los pronósticos meteorológicos.

Para cambiar el mapa : haga clic en los botones verdes con una cruz de color negro para hacer un zoom, en el botón verde con un guión para alejar o en las flechas verdes para mapas adyacentes.


METAR-TAF: